createdAt,value
2023-03-04T00:00:33.290Z,44.53
2023-03-04T00:03:00.950Z,69.80
2023-03-04T00:05:28.523Z,61.08
2023-03-04T00:07:56.054Z,48.08
2023-03-04T00:10:25.450Z,35.28
2023-03-04T00:12:53.011Z,34.75
2023-03-04T00:15:20.516Z,32.42
2023-03-04T00:17:48.074Z,37.15
2023-03-04T00:20:15.706Z,33.40
2023-03-04T00:22:43.244Z,34.63
2023-03-04T00:25:10.827Z,32.17
2023-03-04T00:27:39.744Z,33.42
2023-03-04T00:30:09.074Z,37.63
2023-03-04T00:32:36.855Z,36.30
2023-03-04T00:35:04.814Z,34.28
2023-03-04T00:37:32.361Z,33.60
2023-03-04T00:39:59.889Z,32.60
2023-03-04T00:42:27.409Z,34.05
2023-03-04T00:44:56.220Z,34.00
2023-03-04T00:47:23.720Z,33.40
2023-03-04T00:49:51.257Z,37.97
2023-03-04T00:52:18.822Z,36.97
2023-03-04T00:54:46.351Z,34.80
2023-03-04T00:57:13.853Z,34.13
2023-03-04T00:59:43.776Z,32.38
2023-03-04T01:02:13.186Z,34.00
2023-03-04T01:04:41.855Z,37.13
2023-03-04T01:07:09.505Z,36.60
2023-03-04T01:09:36.993Z,34.65
2023-03-04T01:12:04.723Z,32.13
2023-03-04T01:14:32.276Z,33.85
2023-03-04T01:16:59.874Z,33.75
2023-03-04T01:19:28.946Z,33.75
2023-03-04T01:21:56.518Z,35.30
2023-03-04T01:24:24.061Z,36.53
2023-03-04T01:26:51.608Z,32.15
2023-03-04T01:29:19.120Z,32.35
2023-03-04T01:31:46.684Z,33.97
2023-03-04T01:34:14.443Z,34.83
2023-03-04T01:36:43.363Z,37.25
2023-03-04T01:39:10.898Z,34.83
2023-03-04T01:41:38.440Z,36.28
2023-03-04T01:44:06.966Z,35.22
2023-03-04T01:46:34.736Z,33.65
2023-03-04T01:49:02.430Z,37.00
2023-03-04T01:51:30.004Z,35.67
2023-03-04T01:53:58.922Z,37.10
2023-03-04T01:56:30.088Z,36.05
2023-03-04T01:59:09.738Z,34.00
2023-03-04T02:01:38.599Z,34.85
2023-03-04T02:04:07.697Z,41.75
2023-03-04T02:06:36.255Z,34.85
2023-03-04T02:09:05.796Z,35.20
2023-03-04T02:11:33.991Z,36.95
2023-03-04T02:14:01.596Z,31.70
2023-03-04T02:16:29.183Z,28.23
2023-03-04T02:18:57.010Z,34.70
2023-03-04T02:21:27.101Z,38.55
2023-03-04T02:24:04.316Z,33.90
2023-03-04T02:26:35.028Z,33.95
2023-03-04T02:29:03.881Z,40.85
2023-03-04T02:31:34.248Z,35.00
2023-03-04T02:34:04.607Z,34.05
2023-03-04T02:36:33.616Z,34.92
2023-03-04T02:39:06.635Z,35.40
2023-03-04T02:41:36.165Z,36.47
2023-03-04T02:44:03.763Z,37.45
2023-03-04T02:46:31.409Z,34.03
2023-03-04T02:48:58.990Z,36.08
2023-03-04T02:51:26.558Z,39.22
2023-03-04T02:53:54.153Z,41.67
2023-03-04T02:56:21.682Z,32.33
2023-03-04T02:58:50.596Z,35.20
2023-03-04T03:01:18.086Z,31.35
2023-03-04T03:03:45.580Z,39.45
2023-03-04T03:06:13.156Z,41.00
2023-03-04T03:08:40.680Z,34.25
2023-03-04T03:11:09.494Z,37.65
2023-03-04T03:13:37.148Z,39.55
2023-03-04T03:16:06.794Z,37.25
2023-03-04T03:18:34.351Z,35.47
2023-03-04T03:21:01.900Z,40.10
2023-03-04T03:23:29.423Z,38.65
2023-03-04T03:25:56.952Z,38.40
2023-03-04T03:28:24.450Z,38.72
2023-03-04T03:30:51.978Z,36.00
2023-03-04T03:33:20.831Z,37.22
2023-03-04T03:35:48.635Z,37.22
2023-03-04T03:38:16.444Z,37.97
2023-03-04T03:40:44.034Z,41.88
2023-03-04T03:43:11.928Z,39.22
2023-03-04T03:45:39.501Z,37.08
2023-03-04T03:48:07.370Z,40.78
2023-03-04T03:50:36.205Z,41.42
2023-03-04T03:53:03.846Z,40.67
2023-03-04T03:55:31.352Z,44.55
2023-03-04T03:57:58.956Z,44.15
2023-03-04T04:00:26.470Z,44.53
2023-03-04T04:02:55.608Z,46.90
2023-03-04T04:05:23.176Z,43.88
2023-03-04T04:07:54.071Z,38.78
2023-03-04T04:10:22.218Z,43.95
2023-03-04T04:12:49.807Z,42.97
2023-03-04T04:15:17.416Z,47.03
2023-03-04T04:17:44.996Z,43.28
2023-03-04T04:20:13.131Z,47.67
2023-03-04T04:22:40.634Z,45.47
2023-03-04T04:25:10.699Z,44.03
2023-03-04T04:27:38.413Z,40.38
2023-03-04T04:30:07.426Z,42.88
2023-03-04T04:32:35.152Z,46.10
2023-03-04T04:35:02.650Z,45.17
2023-03-04T04:37:30.216Z,42.63
2023-03-04T04:39:57.694Z,44.78
2023-03-04T04:42:26.922Z,44.35
2023-03-04T04:44:54.470Z,47.60
2023-03-04T04:47:21.970Z,45.00
2023-03-04T04:49:49.488Z,46.40
2023-03-04T04:52:17.026Z,48.08
2023-03-04T04:54:44.524Z,43.95
2023-03-04T04:57:12.055Z,46.53
2023-03-04T04:59:40.871Z,46.72
2023-03-04T05:02:08.382Z,42.72
2023-03-04T05:04:35.907Z,47.20
2023-03-04T05:07:03.470Z,46.17
2023-03-04T05:09:31.001Z,45.58
2023-03-04T05:11:58.569Z,49.47
2023-03-04T05:14:26.154Z,47.33
2023-03-04T05:16:55.101Z,45.83
2023-03-04T05:19:22.760Z,42.35
2023-03-04T05:21:50.458Z,46.03
2023-03-04T05:24:18.089Z,48.00
2023-03-04T05:26:45.630Z,41.20
2023-03-04T05:29:13.197Z,40.97
2023-03-04T05:31:40.809Z,40.97
2023-03-04T05:34:09.674Z,48.30
2023-03-04T05:36:37.247Z,47.25
2023-03-04T05:39:04.811Z,36.00
2023-03-04T05:41:32.304Z,41.53
2023-03-04T05:43:59.824Z,34.13
2023-03-04T05:46:27.447Z,38.42
2023-03-04T05:48:55.783Z,40.67
2023-03-04T05:51:24.780Z,38.25
2023-03-04T05:53:52.307Z,32.88
2023-03-04T05:56:21.438Z,35.28
2023-03-04T05:58:48.939Z,34.97
2023-03-04T06:01:16.976Z,37.55
2023-03-04T06:03:44.647Z,33.35
2023-03-04T06:06:12.473Z,39.83
2023-03-04T06:08:41.399Z,39.97
2023-03-04T06:11:09.377Z,40.72
2023-03-04T06:13:38.144Z,43.25
2023-03-04T06:16:06.377Z,46.17
2023-03-04T06:18:34.028Z,46.58
2023-03-04T06:21:03.408Z,47.03
2023-03-04T06:23:31.626Z,47.72
2023-03-04T06:26:02.267Z,41.45
2023-03-04T06:28:30.202Z,38.03
2023-03-04T06:30:58.913Z,39.67
2023-03-04T06:33:26.610Z,38.80
2023-03-04T06:35:56.432Z,39.03
2023-03-04T06:38:25.604Z,38.13
2023-03-04T06:40:55.977Z,41.67
2023-03-04T06:43:25.969Z,43.40
2023-03-04T06:45:53.838Z,44.88
2023-03-04T06:48:21.369Z,47.28
2023-03-04T06:50:48.881Z,48.25
2023-03-04T06:53:16.518Z,48.70
2023-03-04T06:55:44.070Z,49.38
2023-03-04T06:58:13.645Z,45.13
2023-03-04T07:00:42.512Z,53.47
2023-03-04T07:03:10.330Z,46.03
2023-03-04T07:05:37.850Z,43.75
2023-03-04T07:08:07.006Z,47.92
2023-03-04T07:10:34.603Z,39.20
2023-03-04T07:13:02.607Z,40.83
2023-03-04T07:15:30.617Z,38.53
2023-03-04T07:17:59.465Z,40.40
2023-03-04T07:20:27.005Z,40.60
2023-03-04T07:22:54.515Z,42.30
2023-03-04T07:25:22.021Z,34.88
2023-03-04T07:27:49.498Z,39.85
2023-03-04T07:30:17.547Z,34.25
2023-03-04T07:32:45.107Z,32.65
2023-03-04T07:35:13.953Z,33.08
2023-03-04T07:37:41.585Z,32.00
2023-03-04T07:40:10.645Z,37.40
2023-03-04T07:42:38.196Z,33.30
2023-03-04T07:45:07.933Z,31.38
2023-03-04T07:47:37.700Z,35.10
2023-03-04T07:50:05.924Z,33.30
2023-03-04T07:52:34.744Z,34.15
2023-03-04T07:55:02.781Z,27.30
2023-03-04T07:57:30.330Z,30.50
2023-03-04T07:59:57.863Z,29.30
2023-03-04T08:02:25.437Z,25.25
2023-03-04T08:04:52.937Z,26.00
2023-03-04T08:07:20.464Z,29.20
2023-03-04T08:09:49.732Z,26.85
2023-03-04T08:12:17.258Z,27.00
2023-03-04T08:14:44.850Z,28.83
2023-03-04T08:17:14.758Z,30.17
2023-03-04T08:19:42.266Z,29.30
2023-03-04T08:22:09.942Z,29.00
2023-03-04T08:24:37.589Z,25.33
2023-03-04T08:27:06.676Z,26.40
2023-03-04T08:29:34.242Z,29.02
2023-03-04T08:32:01.926Z,28.35
2023-03-04T08:34:29.923Z,28.25
2023-03-04T08:36:57.442Z,25.92
2023-03-04T08:39:24.970Z,27.98
2023-03-04T08:41:52.548Z,23.52
2023-03-04T08:44:21.366Z,25.40
2023-03-04T08:46:48.905Z,25.23
2023-03-04T08:49:16.461Z,28.00
2023-03-04T08:51:45.226Z,24.42
2023-03-04T08:54:13.092Z,25.55
2023-03-04T08:56:41.651Z,22.95
2023-03-04T08:59:09.153Z,22.48
2023-03-04T09:01:38.103Z,18.83
2023-03-04T09:04:05.945Z,19.35
2023-03-04T09:06:33.515Z,19.67
2023-03-04T09:09:01.037Z,21.55
2023-03-04T09:11:28.623Z,24.20
2023-03-04T09:13:56.123Z,25.48
2023-03-04T09:16:24.304Z,21.17
2023-03-04T09:18:53.254Z,22.00
2023-03-04T09:21:20.912Z,23.45
2023-03-04T09:23:48.401Z,25.40
2023-03-04T09:26:18.566Z,22.52
2023-03-04T09:28:46.087Z,19.38
2023-03-04T09:31:14.702Z,23.33
2023-03-04T09:33:43.120Z,23.45
2023-03-04T09:36:14.603Z,21.90
2023-03-04T09:38:43.000Z,20.10
2023-03-04T09:41:15.343Z,22.02
2023-03-04T09:43:45.162Z,21.05
2023-03-04T09:46:16.138Z,23.63
2023-03-04T09:48:47.566Z,22.73
2023-03-04T09:51:41.601Z,21.92
2023-03-04T09:54:12.063Z,27.23
2023-03-04T09:56:41.295Z,25.35
2023-03-04T09:59:18.312Z,23.77
2023-03-04T10:01:50.754Z,24.52
2023-03-04T10:04:27.582Z,27.80
2023-03-04T10:06:57.479Z,22.15
2023-03-04T10:09:29.453Z,24.45
2023-03-04T10:12:03.997Z,27.50
2023-03-04T10:14:36.544Z,26.42
2023-03-04T10:17:11.170Z,22.85
2023-03-04T10:19:50.167Z,28.90
2023-03-04T10:22:27.676Z,22.30
2023-03-04T10:24:57.937Z,25.23
2023-03-04T10:27:27.001Z,29.63
2023-03-04T10:29:54.498Z,25.50
2023-03-04T10:32:22.206Z,26.80
2023-03-04T10:34:49.795Z,27.33
2023-03-04T10:37:18.683Z,26.58
2023-03-04T10:39:49.331Z,27.05
2023-03-04T10:42:37.524Z,25.83
2023-03-04T10:45:20.096Z,25.77
2023-03-04T10:47:53.599Z,26.88
2023-03-04T10:50:24.184Z,30.98
2023-03-04T10:52:55.630Z,34.50
2023-03-04T10:55:25.790Z,30.23
2023-03-04T10:57:57.867Z,31.60
2023-03-04T11:00:29.717Z,29.70
2023-03-04T11:03:25.912Z,30.37
2023-03-04T11:06:06.761Z,29.08
2023-03-04T11:08:35.673Z,29.17
2023-03-04T11:11:03.257Z,27.38
2023-03-04T11:13:32.552Z,26.05
2023-03-04T11:16:03.107Z,27.70
2023-03-04T11:18:41.745Z,27.60
2023-03-04T11:21:18.067Z,20.77
2023-03-04T11:23:51.667Z,28.80
2023-03-04T11:26:22.534Z,25.75
2023-03-04T11:28:55.263Z,25.38
2023-03-04T11:31:28.857Z,24.20
2023-03-04T11:34:02.331Z,25.40
2023-03-04T11:36:37.026Z,20.45
2023-03-04T11:39:15.174Z,21.27
2023-03-04T11:41:48.936Z,21.70
2023-03-04T11:44:16.497Z,23.38
2023-03-04T11:46:55.080Z,20.95
2023-03-04T11:49:42.807Z,25.02
2023-03-04T11:52:22.998Z,28.88
2023-03-04T11:55:11.673Z,25.85
2023-03-04T11:57:50.973Z,31.45
2023-03-04T12:00:33.090Z,26.30
2023-03-04T12:03:46.154Z,30.37
2023-03-04T12:06:22.287Z,29.55
2023-03-04T12:09:01.671Z,26.90
2023-03-04T12:11:42.691Z,26.35
2023-03-04T12:14:23.029Z,21.80
2023-03-04T12:17:19.145Z,30.08
2023-03-04T12:20:17.065Z,24.73
2023-03-04T12:22:47.586Z,27.65
2023-03-04T12:25:41.086Z,24.15
2023-03-04T12:28:25.722Z,25.98
2023-03-04T12:31:07.559Z,23.92
2023-03-04T12:33:46.276Z,24.05
2023-03-04T12:36:20.432Z,27.88
2023-03-04T12:39:01.022Z,21.67
2023-03-04T12:41:39.523Z,24.05
2023-03-04T12:44:18.174Z,24.83
2023-03-04T12:47:11.593Z,25.17
2023-03-04T12:49:51.454Z,22.25
2023-03-04T12:52:27.327Z,23.27
2023-03-04T12:54:58.967Z,23.20
2023-03-04T12:57:31.457Z,24.60
2023-03-04T13:00:10.286Z,25.23
2023-03-04T13:03:06.453Z,23.10
2023-03-04T13:05:52.576Z,24.35
2023-03-04T13:08:33.073Z,25.20
2023-03-04T13:11:04.847Z,24.33
2023-03-04T13:13:38.250Z,27.25
2023-03-04T13:19:39.599Z,26.05
2023-03-04T13:22:34.687Z,23.48
2023-03-04T13:25:34.404Z,27.08
2023-03-04T13:28:26.672Z,26.45
2023-03-04T13:31:26.520Z,24.40
2023-03-04T13:34:04.427Z,29.10
2023-03-04T13:37:01.192Z,26.60
2023-03-04T13:39:34.111Z,24.33
2023-03-04T13:42:03.252Z,25.17
2023-03-04T13:44:59.564Z,26.23
2023-03-04T13:48:22.605Z,22.92
2023-03-04T13:51:40.611Z,23.38
2023-03-04T13:54:15.026Z,26.10
2023-03-04T13:56:46.386Z,29.27
2023-03-04T13:59:26.914Z,29.10
2023-03-04T14:02:03.324Z,26.85
2023-03-04T14:04:36.181Z,25.55
2023-03-04T14:10:00.961Z,26.15
2023-03-04T14:12:30.929Z,28.02
2023-03-04T14:15:01.161Z,27.55
2023-03-04T14:17:31.889Z,24.23
2023-03-04T14:20:03.146Z,28.98
2023-03-04T14:22:34.894Z,29.50
2023-03-04T14:25:04.780Z,28.42
2023-03-04T14:27:36.205Z,29.52
2023-03-04T14:30:08.194Z,28.58
2023-03-04T14:32:36.296Z,32.78
2023-03-04T14:35:06.839Z,34.10
2023-03-04T14:37:44.657Z,29.45
2023-03-04T14:40:27.500Z,27.98
2023-03-04T14:45:52.903Z,28.33
2023-03-04T14:48:26.309Z,29.67
2023-03-04T14:51:27.139Z,33.33
2023-03-04T14:57:32.507Z,26.38
2023-03-04T15:03:56.320Z,31.17
2023-03-04T15:06:30.014Z,27.30
2023-03-04T15:09:39.251Z,30.02
2023-03-04T15:12:30.598Z,26.85
2023-03-04T15:15:16.288Z,29.00
2023-03-04T15:17:45.711Z,32.65
2023-03-04T15:20:24.132Z,29.27
2023-03-04T15:23:07.561Z,31.98
2023-03-04T15:25:37.122Z,28.75
2023-03-04T15:28:05.441Z,29.65
2023-03-04T15:30:35.195Z,29.48
2023-03-04T15:33:07.760Z,28.30
2023-03-04T15:35:35.422Z,33.30
2023-03-04T15:38:04.176Z,29.15
2023-03-04T15:58:17.799Z,25.83
2023-03-04T16:00:45.527Z,28.77
2023-03-04T16:03:17.962Z,28.98
2023-03-04T16:05:48.096Z,25.90
2023-03-04T16:08:18.119Z,28.30
2023-03-04T16:10:50.802Z,31.20
2023-03-04T16:13:20.370Z,33.53
2023-03-04T16:15:51.443Z,28.55
2023-03-04T16:18:19.653Z,34.72
2023-03-04T16:20:48.777Z,30.17
2023-03-04T16:23:19.941Z,29.65
2023-03-04T16:25:52.261Z,26.15
2023-03-04T16:28:26.989Z,29.08
2023-03-04T16:30:57.207Z,27.00
2023-03-04T16:33:24.969Z,29.45
2023-03-04T16:35:53.034Z,29.10
2023-03-04T16:38:28.068Z,31.30
2023-03-04T16:40:58.767Z,33.20
2023-03-04T16:43:27.014Z,28.88
2023-03-04T16:45:57.582Z,28.38
2023-03-04T16:48:25.743Z,28.40
2023-03-04T16:50:53.363Z,28.52
2023-03-04T16:53:32.516Z,28.88
2023-03-04T16:56:05.616Z,32.33
2023-03-04T16:58:33.688Z,32.22
2023-03-04T17:01:02.024Z,30.58
2023-03-04T17:03:29.803Z,32.97
2023-03-04T17:05:57.623Z,30.30
2023-03-04T17:08:36.281Z,32.70
2023-03-04T17:11:11.261Z,32.08
2023-03-04T17:13:44.244Z,28.85
2023-03-04T17:16:13.134Z,28.52
2023-03-04T17:18:58.021Z,31.98
2023-03-04T17:21:29.609Z,26.58
2023-03-04T17:24:04.264Z,28.23
2023-03-04T17:26:38.106Z,28.20
2023-03-04T17:29:08.621Z,29.48
2023-03-04T17:31:42.936Z,32.70
2023-03-04T17:34:14.100Z,33.45
2023-03-04T17:39:28.497Z,31.10
2023-03-04T17:42:07.654Z,33.10
2023-03-04T17:44:39.360Z,32.95
2023-03-04T17:47:12.887Z,27.80
2023-03-04T17:49:47.050Z,40.08
2023-03-04T17:52:25.803Z,28.58
2023-03-04T17:54:57.450Z,29.48
2023-03-04T17:57:33.318Z,30.15
2023-03-04T18:00:01.471Z,30.90
2023-03-04T18:02:35.471Z,31.55
2023-03-04T18:05:07.635Z,29.17
2023-03-04T18:07:43.727Z,31.40
2023-03-04T18:10:14.405Z,29.20
2023-03-04T18:12:56.761Z,32.80
2023-03-04T18:35:04.497Z,31.50
2023-03-04T18:37:32.595Z,35.55
2023-03-04T18:40:00.465Z,35.13
2023-03-04T18:42:30.755Z,30.60
2023-03-04T18:45:01.737Z,30.70
2023-03-04T18:47:33.809Z,35.10
2023-03-04T18:50:05.227Z,31.50
2023-03-04T18:52:33.028Z,33.83
2023-03-04T18:55:01.395Z,29.27
2023-03-04T18:57:29.228Z,30.23
2023-03-04T19:00:00.289Z,30.02
2023-03-04T19:02:32.686Z,32.90
2023-03-04T19:05:07.053Z,30.17
2023-03-04T19:07:34.581Z,33.08
2023-03-04T19:10:02.275Z,33.33
2023-03-04T19:12:30.170Z,34.20
2023-03-04T19:14:57.699Z,30.70
2023-03-04T19:17:25.631Z,30.98
2023-03-04T19:19:53.116Z,33.47
2023-03-04T19:22:21.960Z,32.47
2023-03-04T19:24:49.600Z,35.70
2023-03-04T19:27:17.142Z,33.65
2023-03-04T19:29:44.796Z,31.13
2023-03-04T19:32:12.376Z,34.72
2023-03-04T19:34:40.009Z,29.52
2023-03-04T19:37:07.584Z,29.60
2023-03-04T19:39:36.513Z,28.75
2023-03-04T19:42:04.186Z,29.30
2023-03-04T19:44:32.053Z,32.85
2023-03-04T19:46:59.993Z,29.65
2023-03-04T19:49:27.587Z,28.45
2023-03-04T19:51:55.136Z,30.17
2023-03-04T19:54:22.753Z,28.77
2023-03-04T19:56:51.640Z,27.35
2023-03-04T19:59:19.465Z,30.13
2023-03-04T20:01:51.682Z,25.98
2023-03-04T20:04:21.027Z,28.30
2023-03-04T20:06:50.909Z,28.48
2023-03-04T20:09:19.825Z,24.23
2023-03-04T20:11:57.741Z,31.77
2023-03-04T20:14:28.349Z,24.75
2023-03-04T20:17:00.642Z,26.85
2023-03-04T20:19:28.418Z,28.30
2023-03-04T20:21:57.781Z,25.92
2023-03-04T20:24:25.882Z,30.15
2023-03-04T20:26:53.782Z,29.55
2023-03-04T20:29:21.319Z,27.75
2023-03-04T20:31:50.217Z,29.38
2023-03-04T20:34:17.791Z,26.08
2023-03-04T20:36:45.605Z,27.95
2023-03-04T20:39:27.433Z,27.23
2023-03-04T20:41:56.227Z,27.35
2023-03-04T20:44:23.813Z,27.48
2023-03-04T20:46:53.084Z,31.15
2023-03-04T20:49:23.910Z,27.50
2023-03-04T20:51:51.809Z,33.15
2023-03-04T20:54:19.617Z,29.90
2023-03-04T20:56:47.719Z,32.90
2023-03-04T20:59:15.729Z,32.10
2023-03-04T21:01:47.780Z,28.30
2023-03-04T21:04:17.568Z,30.92
2023-03-04T21:06:47.295Z,33.22
2023-03-04T21:09:16.694Z,29.95
2023-03-04T21:11:44.736Z,28.60
2023-03-04T21:14:15.381Z,28.88
2023-03-04T21:16:43.500Z,30.30
2023-03-04T21:19:17.746Z,33.38
2023-03-04T21:21:45.793Z,30.58
2023-03-04T21:24:15.561Z,34.50
2023-03-04T21:26:45.217Z,33.28
2023-03-04T21:29:13.155Z,29.85
2023-03-04T21:31:42.612Z,31.25
2023-03-04T21:34:18.398Z,34.75
2023-03-04T21:36:46.047Z,29.58
2023-03-04T21:39:17.299Z,30.45
2023-03-04T21:41:44.907Z,32.25
2023-03-04T21:44:22.659Z,34.65
2023-03-04T21:46:56.596Z,36.33
2023-03-04T21:49:25.932Z,33.85
2023-03-04T21:51:53.469Z,31.05
2023-03-04T21:54:21.421Z,41.20
2023-03-04T21:56:50.175Z,30.55
2023-03-04T21:59:18.378Z,33.58
2023-03-04T22:01:46.038Z,31.35
2023-03-04T22:04:13.668Z,36.55
2023-03-04T22:06:42.611Z,31.38
2023-03-04T22:09:12.146Z,34.50
2023-03-04T22:11:39.842Z,35.38
2023-03-04T22:14:07.438Z,34.42
2023-03-04T22:16:48.869Z,36.05
2023-03-04T22:19:20.504Z,42.00
2023-03-04T22:21:49.473Z,35.92
2023-03-04T22:24:17.049Z,34.05
2023-03-04T22:26:44.749Z,35.95
2023-03-04T22:29:12.343Z,35.55
2023-03-04T22:31:40.249Z,35.78
2023-03-04T22:34:09.402Z,31.73
2023-03-04T22:36:39.557Z,34.67
2023-03-04T22:39:10.336Z,29.95
2023-03-04T22:41:37.974Z,41.08
2023-03-04T22:44:06.838Z,33.63
2023-03-04T22:46:37.979Z,40.90
2023-03-04T22:49:09.415Z,35.70
2023-03-04T22:51:37.486Z,35.97
2023-03-04T22:54:05.294Z,33.60
2023-03-04T22:56:36.364Z,41.72
2023-03-04T22:59:03.890Z,41.15
2023-03-04T23:01:31.452Z,38.47
2023-03-04T23:03:59.207Z,46.47
2023-03-04T23:06:27.787Z,41.25
2023-03-04T23:08:55.358Z,40.30
2023-03-04T23:11:26.380Z,43.08
2023-03-04T23:13:55.757Z,42.70
2023-03-04T23:16:28.562Z,36.22
2023-03-04T23:21:28.129Z,35.85
2023-03-04T23:23:56.246Z,31.67
2023-03-04T23:26:26.137Z,35.20
2023-03-04T23:28:56.804Z,42.17
2023-03-04T23:31:25.543Z,44.33
2023-03-04T23:33:57.070Z,35.08
2023-03-04T23:36:26.809Z,38.28
2023-03-04T23:38:54.906Z,36.40
2023-03-04T23:41:25.231Z,36.35
2023-03-04T23:43:55.307Z,35.97
2023-03-04T23:46:23.584Z,36.13
2023-03-04T23:48:51.325Z,38.28
2023-03-04T23:51:20.117Z,32.65
2023-03-04T23:53:48.350Z,34.08
2023-03-04T23:56:17.981Z,39.13
2023-03-04T23:58:46.103Z,35.08
